createdAt,value
2023-03-18T00:00:49.839Z,3.17
2023-03-18T00:03:18.206Z,2.63
2023-03-18T00:05:46.665Z,2.40
2023-03-18T00:08:16.909Z,2.65
2023-03-18T00:10:45.262Z,2.33
2023-03-18T00:13:13.372Z,4.72
2023-03-18T00:15:41.530Z,2.92
2023-03-18T00:18:09.955Z,3.72
2023-03-18T00:20:40.622Z,2.50
2023-03-18T00:23:09.602Z,3.75
2023-03-18T00:25:40.019Z,3.63
2023-03-18T00:28:08.375Z,5.43
2023-03-18T00:30:39.897Z,4.45
2023-03-18T00:33:08.538Z,3.97
2023-03-18T00:35:37.690Z,6.53
2023-03-18T00:38:09.099Z,4.38
2023-03-18T00:40:53.266Z,5.30
2023-03-18T00:43:23.303Z,3.55
2023-03-18T00:45:52.168Z,2.65
2023-03-18T00:48:20.352Z,3.08
2023-03-18T00:50:48.493Z,2.88
2023-03-18T00:53:16.941Z,3.05
2023-03-18T00:55:47.251Z,3.22
2023-03-18T00:58:15.463Z,2.92
2023-03-18T01:00:43.642Z,2.45
2023-03-18T01:03:12.094Z,2.00
2023-03-18T01:05:40.308Z,2.63
2023-03-18T01:08:08.556Z,4.22
2023-03-18T01:10:36.707Z,2.78
2023-03-18T01:13:06.423Z,5.47
2023-03-18T01:15:34.709Z,3.42
2023-03-18T01:18:04.005Z,4.68
2023-03-18T01:20:32.321Z,6.00
2023-03-18T01:23:00.849Z,3.00
2023-03-18T01:25:30.714Z,3.13
2023-03-18T01:27:59.677Z,2.95
2023-03-18T01:30:30.012Z,4.85
2023-03-18T01:32:58.600Z,2.03
2023-03-18T01:35:28.425Z,1.50
2023-03-18T01:37:56.435Z,3.00
2023-03-18T01:40:24.925Z,4.30
2023-03-18T01:42:58.291Z,2.70
2023-03-18T01:45:31.912Z,3.65
2023-03-18T01:48:02.504Z,3.20
2023-03-18T01:50:33.780Z,1.95
2023-03-18T01:53:06.366Z,3.80
2023-03-18T01:55:37.054Z,2.78
2023-03-18T01:58:11.378Z,2.10
2023-03-18T02:00:46.161Z,2.45
2023-03-18T02:03:15.256Z,2.25
2023-03-18T02:05:44.472Z,3.70
2023-03-18T02:08:12.815Z,1.95
2023-03-18T02:10:40.928Z,3.88
2023-03-18T02:13:12.566Z,2.70
2023-03-18T02:15:47.842Z,3.50
2023-03-18T02:18:20.193Z,2.72
2023-03-18T02:21:01.805Z,2.15
2023-03-18T02:23:42.527Z,2.85
2023-03-18T02:26:16.312Z,3.35
2023-03-18T02:28:48.180Z,2.85
2023-03-18T02:31:18.354Z,2.78
2023-03-18T02:33:47.821Z,3.10
2023-03-18T02:36:22.517Z,1.88
2023-03-18T02:38:52.263Z,3.38
2023-03-18T02:41:27.852Z,9.65
2023-03-18T02:43:57.574Z,2.75
2023-03-18T02:46:35.163Z,3.08
2023-03-18T02:49:06.750Z,1.70
2023-03-18T02:51:36.946Z,2.65
2023-03-18T02:54:08.357Z,4.88
2023-03-18T02:56:36.830Z,2.03
2023-03-18T02:59:07.414Z,1.70
2023-03-18T03:01:37.562Z,3.45
2023-03-18T03:04:07.961Z,5.50
2023-03-18T03:06:37.174Z,2.65
2023-03-18T03:09:06.439Z,1.73
2023-03-18T03:11:37.125Z,4.45
2023-03-18T03:14:16.922Z,2.35
2023-03-18T03:16:47.491Z,4.15
2023-03-18T03:19:15.740Z,2.10
2023-03-18T03:21:43.874Z,1.83
2023-03-18T03:24:11.924Z,1.60
2023-03-18T03:26:41.243Z,3.75
2023-03-18T03:29:09.654Z,3.15
2023-03-18T03:31:39.262Z,3.00
2023-03-18T03:34:08.208Z,2.20
2023-03-18T03:36:36.801Z,1.92
2023-03-18T03:39:06.318Z,3.90
2023-03-18T03:41:36.466Z,3.42
2023-03-18T03:44:04.959Z,1.90
2023-03-18T03:46:33.110Z,2.17
2023-03-18T03:49:03.088Z,2.45
2023-03-18T03:51:31.303Z,1.85
2023-03-18T03:53:59.438Z,1.85
2023-03-18T03:56:28.555Z,2.13
2023-03-18T03:58:56.669Z,2.17
2023-03-18T04:01:29.425Z,2.67
2023-03-18T04:03:58.941Z,2.10
2023-03-18T04:06:28.470Z,4.75
2023-03-18T04:09:02.041Z,2.38
2023-03-18T04:11:30.749Z,3.25
2023-03-18T04:13:58.875Z,2.00
2023-03-18T04:16:28.688Z,3.28
2023-03-18T04:18:57.056Z,2.33
2023-03-18T04:21:25.758Z,2.00
2023-03-18T04:23:57.573Z,2.17
2023-03-18T04:26:26.021Z,4.68
2023-03-18T04:28:55.343Z,2.78
2023-03-18T04:31:23.983Z,2.20
2023-03-18T04:33:52.448Z,1.40
2023-03-18T04:36:20.540Z,2.65
2023-03-18T04:38:48.743Z,2.40
2023-03-18T04:41:18.805Z,1.50
2023-03-18T04:43:46.959Z,1.70
2023-03-18T04:46:14.944Z,2.65
2023-03-18T04:48:45.948Z,3.72
2023-03-18T04:51:14.313Z,1.73
2023-03-18T04:53:43.241Z,2.35
2023-03-18T04:56:12.679Z,3.58
2023-03-18T04:58:50.894Z,4.70
2023-03-18T05:01:23.584Z,3.60
2023-03-18T05:03:52.116Z,2.42
2023-03-18T05:06:24.153Z,4.65
2023-03-18T05:08:59.235Z,2.42
2023-03-18T05:11:30.652Z,2.38
2023-03-18T05:14:03.747Z,1.88
2023-03-18T05:16:40.418Z,3.55
2023-03-18T05:19:09.653Z,1.65
2023-03-18T05:21:41.823Z,2.47
2023-03-18T05:24:10.687Z,2.40
2023-03-18T05:26:41.871Z,3.33
2023-03-18T05:29:11.944Z,1.45
2023-03-18T05:31:47.121Z,2.53
2023-03-18T05:34:15.168Z,4.53
2023-03-18T05:36:44.225Z,2.85
2023-03-18T05:39:12.649Z,2.35
2023-03-18T05:41:40.937Z,3.85
2023-03-18T05:44:13.368Z,2.95
2023-03-18T05:46:42.913Z,4.93
2023-03-18T05:49:23.423Z,2.40
2023-03-18T05:52:17.623Z,2.03
2023-03-18T05:54:48.440Z,2.70
2023-03-18T05:57:21.255Z,3.10
2023-03-18T05:59:52.445Z,2.20
2023-03-18T06:02:20.914Z,3.75
2023-03-18T06:04:48.929Z,2.88
2023-03-18T06:07:17.002Z,2.35
2023-03-18T06:09:45.251Z,2.67
2023-03-18T06:12:13.302Z,3.67
2023-03-18T06:14:41.321Z,3.40
2023-03-18T06:17:10.793Z,2.45
2023-03-18T06:19:39.709Z,2.33
2023-03-18T06:22:09.968Z,2.17
2023-03-18T06:24:38.073Z,2.72
2023-03-18T06:27:06.933Z,2.20
2023-03-18T06:29:36.915Z,1.40
2023-03-18T06:32:13.902Z,2.55
2023-03-18T06:34:42.434Z,2.90
2023-03-18T06:37:10.802Z,8.90
2023-03-18T06:39:41.178Z,4.75
2023-03-18T06:42:11.391Z,2.58
2023-03-18T06:44:50.811Z,2.00
2023-03-18T06:47:26.445Z,2.67
2023-03-18T06:49:57.335Z,3.05
2023-03-18T06:52:31.336Z,3.35
2023-03-18T06:55:04.828Z,2.90
2023-03-18T06:57:34.654Z,4.10
2023-03-18T07:00:04.560Z,2.67
2023-03-18T07:02:33.937Z,5.65
2023-03-18T07:05:04.289Z,4.05
2023-03-18T07:07:37.703Z,2.22
2023-03-18T07:10:08.124Z,2.05
2023-03-18T07:12:36.564Z,3.90
2023-03-18T07:15:05.065Z,2.47
2023-03-18T07:17:34.850Z,2.78
2023-03-18T07:20:05.461Z,1.70
2023-03-18T07:22:37.507Z,2.88
2023-03-18T07:25:06.805Z,2.45
2023-03-18T07:27:35.161Z,4.07
2023-03-18T07:30:03.268Z,3.45
2023-03-18T07:32:31.778Z,3.05
2023-03-18T07:35:03.156Z,1.70
2023-03-18T07:37:31.684Z,2.88
2023-03-18T07:40:00.036Z,2.05
2023-03-18T07:42:28.406Z,2.03
2023-03-18T07:44:58.426Z,4.22
2023-03-18T07:47:26.506Z,3.42
2023-03-18T07:49:54.476Z,3.15
2023-03-18T07:52:24.581Z,2.30
2023-03-18T07:54:52.627Z,2.45
2023-03-18T07:57:20.891Z,2.08
2023-03-18T07:59:49.426Z,2.35
2023-03-18T08:02:17.456Z,2.80
2023-03-18T08:04:46.813Z,2.20
2023-03-18T08:07:15.137Z,1.90
2023-03-18T08:09:45.635Z,2.22
2023-03-18T08:12:13.900Z,6.13
2023-03-18T08:14:42.011Z,1.92
2023-03-18T08:17:10.805Z,1.83
2023-03-18T08:19:39.205Z,3.15
2023-03-18T08:22:08.226Z,3.47
2023-03-18T08:24:37.336Z,3.45
2023-03-18T08:27:07.360Z,2.00
2023-03-18T08:29:35.410Z,2.00
2023-03-18T08:32:03.920Z,1.40
2023-03-18T08:34:32.624Z,1.30
2023-03-18T08:37:00.978Z,3.28
2023-03-18T08:39:29.237Z,3.17
2023-03-18T08:41:57.363Z,1.75
2023-03-18T08:44:26.744Z,2.72
2023-03-18T08:46:55.054Z,1.83
2023-03-18T08:49:23.101Z,1.77
2023-03-18T08:51:51.797Z,2.30
2023-03-18T08:54:20.171Z,5.63
2023-03-18T08:56:48.136Z,2.13
2023-03-18T08:59:16.168Z,2.67
2023-03-18T09:01:45.826Z,2.47
2023-03-18T09:04:14.858Z,2.03
2023-03-18T09:06:43.319Z,1.67
2023-03-18T09:09:11.726Z,2.47
2023-03-18T09:11:40.795Z,2.13
2023-03-18T09:14:09.260Z,1.75
2023-03-18T09:16:37.691Z,2.10
2023-03-18T09:19:07.616Z,2.65
2023-03-18T09:21:36.135Z,2.08
2023-03-18T09:24:07.041Z,3.20
2023-03-18T09:26:35.822Z,2.95
2023-03-18T09:29:03.983Z,2.42
2023-03-18T09:31:32.683Z,2.42
2023-03-18T09:34:00.993Z,2.58
2023-03-18T09:36:30.751Z,2.10
2023-03-18T09:39:00.222Z,2.40
2023-03-18T09:41:38.762Z,4.03
2023-03-18T09:44:14.923Z,2.97
2023-03-18T09:46:58.044Z,2.33
2023-03-18T09:49:43.418Z,3.78
2023-03-18T09:52:22.723Z,2.58
2023-03-18T09:54:58.757Z,2.45
2023-03-18T09:57:31.309Z,3.65
2023-03-18T10:00:05.229Z,2.85
2023-03-18T10:02:42.475Z,5.90
2023-03-18T10:05:16.719Z,2.58
2023-03-18T10:07:51.694Z,2.78
2023-03-18T10:10:25.539Z,4.40
2023-03-18T10:13:01.569Z,3.15
2023-03-18T10:15:34.147Z,2.45
2023-03-18T10:18:12.509Z,2.45
2023-03-18T10:20:53.675Z,2.67
2023-03-18T10:23:32.413Z,5.07
2023-03-18T10:26:17.503Z,4.53
2023-03-18T10:29:01.462Z,2.22
2023-03-18T10:31:42.502Z,2.15
2023-03-18T10:34:13.426Z,2.65
2023-03-18T10:36:51.352Z,1.73
2023-03-18T10:39:24.986Z,1.70
2023-03-18T10:41:55.533Z,1.83
2023-03-18T10:44:27.738Z,4.03
2023-03-18T10:47:00.353Z,5.10
2023-03-18T10:49:32.965Z,1.85
2023-03-18T10:52:07.782Z,3.15
2023-03-18T10:54:41.625Z,1.38
2023-03-18T10:57:15.807Z,1.35
2023-03-18T10:59:45.531Z,2.80
2023-03-18T11:02:20.055Z,1.92
2023-03-18T11:04:54.640Z,2.72
2023-03-18T11:07:26.115Z,2.55
2023-03-18T11:09:56.321Z,1.80
2023-03-18T11:12:28.746Z,2.72
2023-03-18T11:14:58.136Z,1.85
2023-03-18T11:17:29.527Z,3.72
2023-03-18T11:20:05.422Z,3.30
2023-03-18T11:22:34.310Z,2.90
2023-03-18T11:25:08.236Z,1.63
2023-03-18T11:27:40.682Z,2.97
2023-03-18T11:30:33.172Z,2.50
2023-03-18T11:33:07.214Z,1.63
2023-03-18T11:36:06.862Z,2.38
2023-03-18T11:38:37.501Z,1.90
2023-03-18T11:41:09.677Z,2.17
2023-03-18T11:43:38.715Z,4.38
2023-03-18T11:46:09.951Z,3.92
2023-03-18T11:48:40.351Z,4.82
2023-03-18T11:51:35.188Z,2.13
2023-03-18T11:54:20.369Z,4.00
2023-03-18T11:56:53.921Z,3.05
2023-03-18T11:59:33.574Z,2.38
2023-03-18T12:02:22.847Z,3.40
2023-03-18T12:05:46.869Z,2.22
2023-03-18T12:08:37.773Z,4.22
2023-03-18T12:11:23.570Z,3.05
2023-03-18T12:14:05.595Z,3.70
2023-03-18T12:16:46.594Z,2.55
2023-03-18T12:19:36.156Z,1.70
2023-03-18T12:22:20.634Z,1.13
2023-03-18T12:25:06.771Z,1.70
2023-03-18T12:27:43.013Z,1.65
2023-03-18T12:30:35.466Z,2.67
2023-03-18T12:33:14.322Z,1.75
2023-03-18T12:35:50.917Z,2.55
2023-03-18T12:38:45.917Z,2.13
2023-03-18T12:41:19.410Z,1.58
2023-03-18T12:44:00.434Z,3.28
2023-03-18T12:46:34.682Z,1.60
2023-03-18T12:49:09.449Z,1.55
2023-03-18T12:51:46.732Z,2.97
2023-03-18T12:54:21.515Z,3.45
2023-03-18T12:56:55.843Z,4.65
2023-03-18T12:59:32.794Z,2.50
2023-03-18T13:02:29.997Z,1.48
2023-03-18T13:05:05.710Z,1.63
2023-03-18T13:07:42.976Z,1.80
2023-03-18T13:10:23.383Z,4.72
2023-03-18T13:12:56.261Z,4.70
2023-03-18T13:15:34.840Z,2.15
2023-03-18T13:18:14.795Z,4.57
2023-03-18T13:20:44.709Z,7.13
2023-03-18T13:23:21.968Z,3.30
2023-03-18T13:26:01.682Z,2.03
2023-03-18T13:28:45.997Z,2.78
2023-03-18T13:31:27.628Z,2.25
2023-03-18T13:34:26.657Z,1.80
2023-03-18T13:37:18.800Z,2.00
2023-03-18T13:40:01.597Z,36.70
2023-03-18T13:42:31.643Z,35.03
2023-03-18T13:45:07.456Z,26.85
2023-03-18T13:47:38.492Z,52.03
2023-03-18T13:50:29.117Z,2.65
2023-03-18T13:52:59.331Z,2.13
2023-03-18T13:55:34.079Z,1.85
2023-03-18T13:58:21.462Z,5.45
2023-03-18T14:01:28.916Z,1.50
2023-03-18T14:04:01.423Z,1.55
2023-03-18T14:06:54.274Z,2.40
2023-03-18T14:09:37.396Z,1.95
2023-03-18T14:12:25.038Z,3.88
2023-03-18T14:15:02.648Z,5.55
2023-03-18T14:17:47.678Z,2.85
2023-03-18T14:20:40.113Z,4.55
2023-03-18T14:23:30.509Z,3.67
2023-03-18T14:26:04.536Z,3.15
2023-03-18T14:28:43.228Z,3.63
2023-03-18T14:31:21.085Z,3.45
2023-03-18T14:34:02.970Z,5.30
2023-03-18T14:37:04.419Z,5.80
2023-03-18T14:39:39.577Z,2.88
2023-03-18T14:42:20.200Z,2.55
2023-03-18T14:44:53.846Z,2.97
2023-03-18T14:47:38.270Z,4.30
2023-03-18T14:50:15.925Z,2.67
2023-03-18T14:52:48.928Z,3.65
2023-03-18T14:55:22.262Z,2.42
2023-03-18T14:57:52.227Z,4.80
2023-03-18T15:00:24.212Z,5.22
2023-03-18T15:03:01.027Z,2.97
2023-03-18T15:05:34.915Z,7.00
2023-03-18T15:08:03.963Z,5.50
2023-03-18T15:10:33.762Z,4.47
2023-03-18T15:13:07.045Z,2.00
2023-03-18T15:15:36.753Z,4.55
2023-03-18T15:18:18.607Z,7.70
2023-03-18T15:20:51.188Z,2.72
2023-03-18T15:23:27.179Z,2.60
2023-03-18T15:25:57.254Z,5.00
2023-03-18T15:28:28.338Z,3.97
2023-03-18T15:30:58.961Z,2.90
2023-03-18T15:33:31.222Z,2.67
2023-03-18T15:36:06.907Z,4.13
2023-03-18T15:38:35.074Z,5.63
2023-03-18T15:41:07.421Z,2.40
2023-03-18T15:43:42.070Z,3.83
2023-03-18T15:46:18.289Z,3.17
2023-03-18T15:48:54.433Z,2.53
2023-03-18T15:51:26.502Z,3.88
2023-03-18T15:53:56.507Z,4.28
2023-03-18T15:56:30.372Z,2.35
2023-03-18T15:59:00.731Z,2.75
2023-03-18T16:01:28.869Z,4.88
2023-03-18T16:03:57.017Z,4.57
2023-03-18T16:06:26.730Z,5.57
2023-03-18T16:08:54.791Z,3.08
2023-03-18T16:11:24.899Z,4.95
2023-03-18T16:13:55.534Z,2.28
2023-03-18T16:16:28.394Z,4.13
2023-03-18T16:18:57.343Z,3.58
2023-03-18T16:21:25.637Z,3.60
2023-03-18T16:23:54.864Z,2.45
2023-03-18T16:26:23.907Z,3.40
2023-03-18T16:28:51.862Z,3.47
2023-03-18T16:31:21.929Z,2.80
2023-03-18T16:33:52.750Z,3.70
2023-03-18T16:36:28.222Z,2.10
2023-03-18T16:38:56.409Z,4.57
2023-03-18T16:41:24.350Z,2.75
2023-03-18T16:43:52.874Z,3.40
2023-03-18T16:46:24.221Z,2.03
2023-03-18T16:48:52.492Z,4.32
2023-03-18T16:51:20.639Z,3.35
2023-03-18T16:53:48.794Z,2.90
2023-03-18T16:56:20.770Z,3.25
2023-03-18T16:58:50.729Z,3.65
2023-03-18T17:01:19.421Z,1.85
2023-03-18T17:03:49.698Z,4.22
2023-03-18T17:06:17.895Z,3.78
2023-03-18T17:08:46.069Z,2.47
2023-03-18T17:11:19.146Z,2.50
2023-03-18T17:13:48.719Z,1.60
2023-03-18T17:16:20.005Z,2.55
2023-03-18T17:18:49.616Z,2.22
2023-03-18T17:21:18.125Z,2.78
2023-03-18T17:23:47.671Z,3.47
2023-03-18T17:26:16.202Z,2.55
2023-03-18T17:28:47.705Z,2.10
2023-03-18T17:31:16.713Z,2.85
2023-03-18T17:33:45.108Z,2.35
2023-03-18T17:36:14.445Z,1.70
2023-03-18T17:38:42.733Z,3.35
2023-03-18T17:41:16.791Z,3.38
2023-03-18T17:43:45.127Z,3.30
2023-03-18T17:46:13.142Z,3.40
2023-03-18T17:48:41.240Z,3.35
2023-03-18T17:51:15.664Z,2.33
2023-03-18T17:53:46.083Z,3.78
2023-03-18T17:56:16.296Z,3.67
2023-03-18T17:58:45.803Z,3.75
2023-03-18T18:01:16.535Z,4.40
2023-03-18T18:03:47.008Z,5.13
2023-03-18T18:06:19.561Z,6.97
2023-03-18T18:08:48.612Z,6.15
2023-03-18T18:11:20.574Z,6.07
2023-03-18T18:13:49.452Z,4.30
2023-03-18T18:16:18.815Z,4.63
2023-03-18T18:18:49.697Z,4.22
2023-03-18T18:21:29.239Z,4.13
2023-03-18T18:24:06.154Z,5.65
2023-03-18T18:26:41.926Z,3.83
2023-03-18T18:29:26.754Z,4.90
2023-03-18T18:32:03.501Z,4.30
2023-03-18T18:34:39.714Z,5.40
2023-03-18T18:37:21.222Z,3.78
2023-03-18T18:39:55.565Z,3.67
2023-03-18T18:42:33.998Z,3.20
2023-03-18T18:45:08.953Z,3.78
2023-03-18T18:47:46.295Z,4.28
2023-03-18T18:50:25.424Z,2.85
2023-03-18T18:53:05.002Z,2.85
2023-03-18T18:55:42.210Z,2.58
2023-03-18T18:58:22.498Z,3.05
2023-03-18T19:01:02.587Z,2.83
2023-03-18T19:03:39.894Z,4.30
2023-03-18T19:06:28.944Z,6.07
2023-03-18T19:09:14.848Z,4.13
2023-03-18T19:11:53.478Z,4.40
2023-03-18T19:14:29.792Z,4.88
2023-03-18T19:17:08.251Z,5.63
2023-03-18T19:19:47.866Z,5.13
2023-03-18T19:22:25.386Z,3.30
2023-03-18T19:25:06.972Z,2.42
2023-03-18T19:27:45.423Z,2.55
2023-03-18T19:30:27.836Z,3.50
2023-03-18T19:33:05.452Z,2.20
2023-03-18T19:35:42.088Z,5.22
2023-03-18T19:38:25.897Z,4.68
2023-03-18T19:41:04.814Z,3.88
2023-03-18T19:43:44.676Z,8.13
2023-03-18T19:46:24.187Z,2.53
2023-03-18T19:49:03.905Z,2.60
2023-03-18T19:51:41.738Z,3.13
2023-03-18T19:54:34.335Z,4.80
2023-03-18T19:57:21.001Z,4.45
2023-03-18T19:59:56.489Z,4.75
2023-03-18T20:02:35.853Z,3.10
2023-03-18T20:05:22.950Z,5.82
2023-03-18T20:08:00.398Z,2.85
2023-03-18T20:10:38.880Z,4.35
2023-03-18T20:13:25.607Z,5.60
2023-03-18T20:16:03.311Z,4.10
2023-03-18T20:18:42.865Z,3.15
2023-03-18T20:21:29.762Z,2.60
2023-03-18T20:24:10.449Z,4.55
2023-03-18T20:26:47.540Z,3.58
2023-03-18T20:29:27.699Z,5.85
2023-03-18T20:32:06.255Z,6.15
2023-03-18T20:34:43.988Z,5.30
2023-03-18T20:37:35.480Z,5.60
2023-03-18T20:40:17.538Z,5.25
2023-03-18T20:42:52.914Z,3.55
2023-03-18T20:45:34.222Z,4.60
2023-03-18T20:48:11.985Z,5.53
2023-03-18T20:50:49.476Z,4.18
2023-03-18T20:53:28.136Z,7.38
2023-03-18T20:56:03.809Z,4.53
2023-03-18T20:58:38.437Z,8.60
2023-03-18T21:01:17.302Z,5.25
2023-03-18T21:03:49.419Z,9.68
2023-03-18T21:06:21.746Z,7.80
2023-03-18T21:09:00.104Z,6.50
2023-03-18T21:11:35.789Z,12.38
2023-03-18T21:14:10.279Z,9.10
2023-03-18T21:16:47.695Z,10.82
2023-03-18T21:19:23.561Z,7.80
2023-03-18T21:22:00.782Z,8.93
2023-03-18T21:24:39.151Z,6.82
2023-03-18T21:27:24.564Z,6.82
2023-03-18T21:30:03.971Z,7.13
2023-03-18T21:32:49.378Z,7.00
2023-03-18T21:35:32.928Z,6.88
2023-03-18T21:38:12.319Z,8.45
2023-03-18T21:40:49.230Z,8.00
2023-03-18T21:43:39.038Z,11.70
2023-03-18T21:46:13.649Z,11.10
2023-03-18T21:48:43.423Z,11.90
2023-03-18T21:51:35.484Z,11.02
2023-03-18T21:54:07.267Z,9.48
2023-03-18T21:56:35.481Z,11.57
2023-03-18T21:59:03.654Z,9.75
2023-03-18T22:01:32.596Z,8.90
2023-03-18T22:04:02.401Z,7.60
2023-03-18T22:06:30.928Z,8.82
2023-03-18T22:08:59.462Z,8.43
2023-03-18T22:11:29.009Z,8.15
2023-03-18T22:13:57.127Z,8.00
2023-03-18T22:16:25.447Z,10.90
2023-03-18T22:18:53.588Z,7.95
2023-03-18T22:21:26.373Z,13.25
2023-03-18T22:23:54.746Z,6.50
2023-03-18T22:26:23.185Z,7.00
2023-03-18T22:28:51.561Z,6.35
2023-03-18T22:31:22.020Z,6.78
2023-03-18T22:33:51.045Z,7.35
2023-03-18T22:36:21.669Z,6.55
2023-03-18T22:38:51.514Z,7.43
2023-03-18T22:41:21.710Z,7.15
2023-03-18T22:43:50.304Z,8.93
2023-03-18T22:46:18.781Z,7.28
2023-03-18T22:48:47.080Z,6.32
2023-03-18T22:51:23.569Z,5.80
2023-03-18T22:53:54.931Z,7.65
2023-03-18T22:56:24.114Z,9.35
2023-03-18T22:58:52.851Z,6.60
2023-03-18T23:01:27.629Z,6.53
2023-03-18T23:03:55.775Z,6.28
2023-03-18T23:06:24.881Z,6.57
2023-03-18T23:08:54.612Z,8.60
2023-03-18T23:11:22.718Z,8.55
2023-03-18T23:13:52.201Z,6.95
2023-03-18T23:16:23.346Z,6.97
2023-03-18T23:18:52.003Z,6.38
2023-03-18T23:21:22.126Z,8.90
2023-03-18T23:23:50.501Z,8.30
2023-03-18T23:26:20.375Z,10.05
2023-03-18T23:28:49.241Z,7.53
2023-03-18T23:31:18.074Z,8.23
2023-03-18T23:33:48.138Z,8.25
2023-03-18T23:36:16.666Z,6.80
2023-03-18T23:38:45.131Z,7.68
2023-03-18T23:41:13.601Z,7.00
2023-03-18T23:43:43.276Z,7.45
2023-03-18T23:46:11.929Z,9.35
2023-03-18T23:48:40.294Z,6.32
2023-03-18T23:51:08.496Z,8.05
2023-03-18T23:53:36.719Z,7.10
2023-03-18T23:56:04.965Z,6.50
2023-03-18T23:58:33.188Z,8.73
